sensor_id;sensor_type;location;lat;lon;timestamp;P1;durP1;ratioP1;P2;durP2;ratioP2
48327;SDS011;34136;51.022;7.082;2023-08-01T00:00:40;17.08;;;12.70;;
48327;SDS011;34136;51.022;7.082;2023-08-01T00:03:27;20.60;;;18.33;;
48327;SDS011;34136;51.022;7.082;2023-08-01T00:06:13;23.27;;;19.13;;
48327;SDS011;34136;51.022;7.082;2023-08-01T00:08:59;24.50;;;18.10;;
48327;SDS011;34136;51.022;7.082;2023-08-01T00:11:45;20.67;;;15.02;;
48327;SDS011;34136;51.022;7.082;2023-08-01T00:14:32;19.45;;;16.00;;
48327;SDS011;34136;51.022;7.082;2023-08-01T00:17:18;18.42;;;15.32;;
48327;SDS011;34136;51.022;7.082;2023-08-01T00:20:04;22.42;;;16.77;;
48327;SDS011;34136;51.022;7.082;2023-08-01T00:22:52;20.00;;;13.82;;
48327;SDS011;34136;51.022;7.082;2023-08-01T00:25:38;16.65;;;13.13;;
48327;SDS011;34136;51.022;7.082;2023-08-01T00:28:24;14.70;;;11.90;;
48327;SDS011;34136;51.022;7.082;2023-08-01T00:31:11;11.70;;;10.25;;
48327;SDS011;34136;51.022;7.082;2023-08-01T00:33:57;14.93;;;10.38;;
48327;SDS011;34136;51.022;7.082;2023-08-01T00:36:43;11.32;;;10.13;;
48327;SDS011;34136;51.022;7.082;2023-08-01T00:39:30;10.38;;;9.15;;
48327;SDS011;34136;51.022;7.082;2023-08-01T00:42:16;9.55;;;8.63;;
48327;SDS011;34136;51.022;7.082;2023-08-01T00:45:02;10.95;;;7.57;;
48327;SDS011;34136;51.022;7.082;2023-08-01T00:47:49;8.23;;;7.25;;
48327;SDS011;34136;51.022;7.082;2023-08-01T00:50:38;7.63;;;6.80;;
48327;SDS011;34136;51.022;7.082;2023-08-01T00:53:25;6.63;;;5.72;;
48327;SDS011;34136;51.022;7.082;2023-08-01T00:56:12;6.43;;;5.57;;
48327;SDS011;34136;51.022;7.082;2023-08-01T00:58:59;5.00;;;4.50;;
48327;SDS011;34136;51.022;7.082;2023-08-01T01:01:46;7.55;;;4.53;;
48327;SDS011;34136;51.022;7.082;2023-08-01T01:04:32;5.03;;;4.30;;
48327;SDS011;34136;51.022;7.082;2023-08-01T01:07:19;9.25;;;3.70;;
48327;SDS011;34136;51.022;7.082;2023-08-01T01:10:07;4.07;;;3.58;;
48327;SDS011;34136;51.022;7.082;2023-08-01T01:12:54;5.00;;;3.22;;
48327;SDS011;34136;51.022;7.082;2023-08-01T01:15:40;3.17;;;2.30;;
48327;SDS011;34136;51.022;7.082;2023-08-01T01:18:27;3.35;;;2.03;;
48327;SDS011;34136;51.022;7.082;2023-08-01T01:21:13;4.07;;;1.80;;
48327;SDS011;34136;51.022;7.082;2023-08-01T01:23:59;4.00;;;1.90;;
48327;SDS011;34136;51.022;7.082;2023-08-01T01:26:47;5.15;;;1.65;;
48327;SDS011;34136;51.022;7.082;2023-08-01T01:29:35;5.82;;;1.42;;
48327;SDS011;34136;51.022;7.082;2023-08-01T01:32:22;4.05;;;1.63;;
48327;SDS011;34136;51.022;7.082;2023-08-01T01:35:09;2.60;;;1.80;;
48327;SDS011;34136;51.022;7.082;2023-08-01T01:37:55;2.38;;;2.00;;
48327;SDS011;34136;51.022;7.082;2023-08-01T01:40:42;2.50;;;1.98;;
48327;SDS011;34136;51.022;7.082;2023-08-01T01:43:28;3.00;;;2.00;;
48327;SDS011;34136;51.022;7.082;2023-08-01T01:46:15;3.17;;;1.70;;
48327;SDS011;34136;51.022;7.082;2023-08-01T01:49:01;4.82;;;1.48;;
48327;SDS011;34136;51.022;7.082;2023-08-01T01:51:47;2.63;;;1.05;;
48327;SDS011;34136;51.022;7.082;2023-08-01T01:54:34;1.88;;;0.85;;
48327;SDS011;34136;51.022;7.082;2023-08-01T01:57:20;1.75;;;0.75;;
48327;SDS011;34136;51.022;7.082;2023-08-01T02:00:07;1.30;;;0.43;;
48327;SDS011;34136;51.022;7.082;2023-08-01T02:02:58;1.33;;;0.50;;
48327;SDS011;34136;51.022;7.082;2023-08-01T02:05:44;0.93;;;0.60;;
48327;SDS011;34136;51.022;7.082;2023-08-01T02:08:30;1.45;;;0.70;;
48327;SDS011;34136;51.022;7.082;2023-08-01T02:11:18;1.50;;;0.60;;
48327;SDS011;34136;51.022;7.082;2023-08-01T02:14:04;1.38;;;0.68;;
48327;SDS011;34136;51.022;7.082;2023-08-01T02:16:50;1.77;;;0.75;;
48327;SDS011;34136;51.022;7.082;2023-08-01T02:19:36;4.00;;;1.00;;
48327;SDS011;34136;51.022;7.082;2023-08-01T02:22:24;3.10;;;1.10;;
48327;SDS011;34136;51.022;7.082;2023-08-01T02:25:10;2.53;;;1.40;;
48327;SDS011;34136;51.022;7.082;2023-08-01T02:27:57;4.90;;;1.48;;
48327;SDS011;34136;51.022;7.082;2023-08-01T02:30:43;2.95;;;1.80;;
48327;SDS011;34136;51.022;7.082;2023-08-01T02:33:29;3.80;;;2.17;;
48327;SDS011;34136;51.022;7.082;2023-08-01T02:36:16;3.90;;;2.33;;
48327;SDS011;34136;51.022;7.082;2023-08-01T02:39:02;4.25;;;3.13;;
48327;SDS011;34136;51.022;7.082;2023-08-01T02:41:48;3.05;;;1.88;;
48327;SDS011;34136;51.022;7.082;2023-08-01T02:44:35;3.55;;;1.40;;
48327;SDS011;34136;51.022;7.082;2023-08-01T02:47:21;3.55;;;1.25;;
48327;SDS011;34136;51.022;7.082;2023-08-01T02:50:07;1.50;;;1.08;;
48327;SDS011;34136;51.022;7.082;2023-08-01T02:52:53;3.53;;;1.13;;
48327;SDS011;34136;51.022;7.082;2023-08-01T02:55:40;1.40;;;0.90;;
48327;SDS011;34136;51.022;7.082;2023-08-01T02:58:26;2.55;;;1.10;;
48327;SDS011;34136;51.022;7.082;2023-08-01T03:01:12;3.17;;;1.20;;
48327;SDS011;34136;51.022;7.082;2023-08-01T03:03:58;3.53;;;1.73;;
48327;SDS011;34136;51.022;7.082;2023-08-01T03:06:45;4.55;;;2.53;;
48327;SDS011;34136;51.022;7.082;2023-08-01T03:09:32;2.85;;;1.95;;
48327;SDS011;34136;51.022;7.082;2023-08-01T03:12:18;4.82;;;1.90;;
48327;SDS011;34136;51.022;7.082;2023-08-01T03:15:05;2.08;;;1.30;;
48327;SDS011;34136;51.022;7.082;2023-08-01T03:17:52;2.30;;;1.35;;
48327;SDS011;34136;51.022;7.082;2023-08-01T03:20:38;1.88;;;1.40;;
48327;SDS011;34136;51.022;7.082;2023-08-01T03:23:25;1.75;;;1.15;;
48327;SDS011;34136;51.022;7.082;2023-08-01T03:26:12;3.40;;;1.42;;
48327;SDS011;34136;51.022;7.082;2023-08-01T03:28:58;4.30;;;1.50;;
48327;SDS011;34136;51.022;7.082;2023-08-01T03:31:44;3.20;;;2.03;;
48327;SDS011;34136;51.022;7.082;2023-08-01T03:34:31;3.80;;;2.67;;
48327;SDS011;34136;51.022;7.082;2023-08-01T03:37:17;4.38;;;2.97;;
48327;SDS011;34136;51.022;7.082;2023-08-01T03:40:03;4.97;;;3.92;;
48327;SDS011;34136;51.022;7.082;2023-08-01T03:42:50;5.93;;;5.10;;
48327;SDS011;34136;51.022;7.082;2023-08-01T03:45:36;9.70;;;6.47;;
48327;SDS011;34136;51.022;7.082;2023-08-01T03:48:23;8.60;;;7.70;;
48327;SDS011;34136;51.022;7.082;2023-08-01T03:51:09;9.90;;;8.88;;
48327;SDS011;34136;51.022;7.082;2023-08-01T03:53:55;11.27;;;10.18;;
48327;SDS011;34136;51.022;7.082;2023-08-01T03:56:43;11.52;;;10.38;;
48327;SDS011;34136;51.022;7.082;2023-08-01T03:59:30;10.32;;;9.32;;
48327;SDS011;34136;51.022;7.082;2023-08-01T04:02:16;10.52;;;9.43;;
48327;SDS011;34136;51.022;7.082;2023-08-01T04:05:02;12.75;;;10.40;;
48327;SDS011;34136;51.022;7.082;2023-08-01T04:07:49;12.32;;;11.07;;
48327;SDS011;34136;51.022;7.082;2023-08-01T04:10:38;16.40;;;10.63;;
48327;SDS011;34136;51.022;7.082;2023-08-01T04:13:24;10.70;;;7.95;;
48327;SDS011;34136;51.022;7.082;2023-08-01T04:16:11;9.40;;;7.15;;
48327;SDS011;34136;51.022;7.082;2023-08-01T04:18:58;9.93;;;7.22;;
48327;SDS011;34136;51.022;7.082;2023-08-01T04:21:44;12.70;;;7.75;;
48327;SDS011;34136;51.022;7.082;2023-08-01T04:24:30;9.23;;;7.20;;
48327;SDS011;34136;51.022;7.082;2023-08-01T04:27:17;9.15;;;7.68;;
48327;SDS011;34136;51.022;7.082;2023-08-01T04:30:04;13.10;;;8.30;;
48327;SDS011;34136;51.022;7.082;2023-08-01T04:32:51;9.65;;;8.40;;
48327;SDS011;34136;51.022;7.082;2023-08-01T04:35:37;10.52;;;8.43;;
48327;SDS011;34136;51.022;7.082;2023-08-01T04:38:24;9.98;;;8.98;;
48327;SDS011;34136;51.022;7.082;2023-08-01T04:41:10;10.45;;;8.70;;
48327;SDS011;34136;51.022;7.082;2023-08-01T04:43:56;13.05;;;8.88;;
48327;SDS011;34136;51.022;7.082;2023-08-01T04:46:43;11.07;;;9.35;;
48327;SDS011;34136;51.022;7.082;2023-08-01T04:49:29;12.70;;;10.25;;
48327;SDS011;34136;51.022;7.082;2023-08-01T04:52:15;14.80;;;10.38;;
48327;SDS011;34136;51.022;7.082;2023-08-01T04:55:02;11.43;;;9.48;;
48327;SDS011;34136;51.022;7.082;2023-08-01T04:57:48;14.45;;;10.68;;
48327;SDS011;34136;51.022;7.082;2023-08-01T05:00:35;11.43;;;9.73;;
48327;SDS011;34136;51.022;7.082;2023-08-01T05:03:21;14.50;;;9.65;;
48327;SDS011;34136;51.022;7.082;2023-08-01T05:06:07;13.00;;;9.80;;
48327;SDS011;34136;51.022;7.082;2023-08-01T05:08:53;15.93;;;10.45;;
48327;SDS011;34136;51.022;7.082;2023-08-01T05:11:40;16.70;;;10.98;;
48327;SDS011;34136;51.022;7.082;2023-08-01T05:14:26;15.30;;;12.35;;
48327;SDS011;34136;51.022;7.082;2023-08-01T05:17:12;14.02;;;12.07;;
48327;SDS011;34136;51.022;7.082;2023-08-01T05:19:59;17.50;;;11.52;;
48327;SDS011;34136;51.022;7.082;2023-08-01T05:22:45;15.45;;;10.20;;
48327;SDS011;34136;51.022;7.082;2023-08-01T05:25:31;12.68;;;9.40;;
48327;SDS011;34136;51.022;7.082;2023-08-01T05:28:17;13.15;;;8.68;;
48327;SDS011;34136;51.022;7.082;2023-08-01T05:31:04;13.48;;;8.60;;
48327;SDS011;34136;51.022;7.082;2023-08-01T05:33:50;10.90;;;8.13;;
48327;SDS011;34136;51.022;7.082;2023-08-01T05:36:37;14.98;;;9.45;;
48327;SDS011;34136;51.022;7.082;2023-08-01T05:39:24;11.40;;;8.73;;
48327;SDS011;34136;51.022;7.082;2023-08-01T05:42:10;13.55;;;8.70;;
48327;SDS011;34136;51.022;7.082;2023-08-01T05:44:56;14.27;;;8.48;;
48327;SDS011;34136;51.022;7.082;2023-08-01T05:47:43;11.05;;;7.93;;
48327;SDS011;34136;51.022;7.082;2023-08-01T05:50:29;12.18;;;9.15;;
48327;SDS011;34136;51.022;7.082;2023-08-01T05:53:16;13.20;;;8.20;;
48327;SDS011;34136;51.022;7.082;2023-08-01T05:56:02;13.25;;;8.50;;
48327;SDS011;34136;51.022;7.082;2023-08-01T05:58:48;11.13;;;8.45;;
48327;SDS011;34136;51.022;7.082;2023-08-01T06:01:35;14.38;;;8.07;;
48327;SDS011;34136;51.022;7.082;2023-08-01T06:04:21;11.18;;;7.35;;
48327;SDS011;34136;51.022;7.082;2023-08-01T06:07:08;12.18;;;7.25;;
48327;SDS011;34136;51.022;7.082;2023-08-01T06:09:54;10.88;;;6.93;;
48327;SDS011;34136;51.022;7.082;2023-08-01T06:12:41;12.60;;;6.78;;
48327;SDS011;34136;51.022;7.082;2023-08-01T06:15:27;11.18;;;6.93;;
48327;SDS011;34136;51.022;7.082;2023-08-01T06:18:14;18.65;;;7.28;;
48327;SDS011;34136;51.022;7.082;2023-08-01T06:21:00;10.88;;;6.32;;
48327;SDS011;34136;51.022;7.082;2023-08-01T06:23:46;10.68;;;6.50;;
48327;SDS011;34136;51.022;7.082;2023-08-01T06:26:32;12.98;;;6.70;;
48327;SDS011;34136;51.022;7.082;2023-08-01T06:29:19;12.82;;;7.05;;
48327;SDS011;34136;51.022;7.082;2023-08-01T06:32:05;15.32;;;6.05;;
48327;SDS011;34136;51.022;7.082;2023-08-01T06:34:51;10.57;;;6.25;;
48327;SDS011;34136;51.022;7.082;2023-08-01T06:37:37;10.00;;;5.55;;
48327;SDS011;34136;51.022;7.082;2023-08-01T06:40:24;14.73;;;5.95;;
48327;SDS011;34136;51.022;7.082;2023-08-01T06:43:10;10.55;;;6.05;;
48327;SDS011;34136;51.022;7.082;2023-08-01T06:45:56;8.48;;;5.47;;
48327;SDS011;34136;51.022;7.082;2023-08-01T06:48:42;10.60;;;5.60;;
48327;SDS011;34136;51.022;7.082;2023-08-01T06:51:28;8.68;;;5.55;;
48327;SDS011;34136;51.022;7.082;2023-08-01T06:54:14;12.88;;;5.85;;
48327;SDS011;34136;51.022;7.082;2023-08-01T06:57:01;14.40;;;6.65;;
48327;SDS011;34136;51.022;7.082;2023-08-01T06:59:47;11.25;;;5.95;;
48327;SDS011;34136;51.022;7.082;2023-08-01T07:02:33;12.68;;;5.55;;
48327;SDS011;34136;51.022;7.082;2023-08-01T07:05:19;9.85;;;5.72;;
48327;SDS011;34136;51.022;7.082;2023-08-01T07:08:05;15.55;;;6.90;;
48327;SDS011;34136;51.022;7.082;2023-08-01T07:10:51;13.15;;;6.50;;
48327;SDS011;34136;51.022;7.082;2023-08-01T07:13:37;13.07;;;6.55;;
48327;SDS011;34136;51.022;7.082;2023-08-01T07:16:23;9.73;;;6.30;;
48327;SDS011;34136;51.022;7.082;2023-08-01T07:19:09;9.30;;;5.70;;
48327;SDS011;34136;51.022;7.082;2023-08-01T07:21:56;10.63;;;6.13;;
48327;SDS011;34136;51.022;7.082;2023-08-01T07:24:42;11.73;;;6.25;;
48327;SDS011;34136;51.022;7.082;2023-08-01T07:27:29;13.75;;;6.05;;
48327;SDS011;34136;51.022;7.082;2023-08-01T07:30:30;11.52;;;6.20;;
48327;SDS011;34136;51.022;7.082;2023-08-01T07:33:16;13.00;;;6.15;;
48327;SDS011;34136;51.022;7.082;2023-08-01T07:36:02;10.13;;;6.00;;
48327;SDS011;34136;51.022;7.082;2023-08-01T07:38:49;12.60;;;5.72;;
48327;SDS011;34136;51.022;7.082;2023-08-01T07:41:35;9.23;;;5.63;;
48327;SDS011;34136;51.022;7.082;2023-08-01T07:44:21;12.20;;;6.47;;
48327;SDS011;34136;51.022;7.082;2023-08-01T07:47:08;10.00;;;5.28;;
48327;SDS011;34136;51.022;7.082;2023-08-01T07:49:54;8.68;;;5.72;;
48327;SDS011;34136;51.022;7.082;2023-08-01T07:52:41;10.88;;;6.45;;
48327;SDS011;34136;51.022;7.082;2023-08-01T07:55:27;13.02;;;6.30;;
48327;SDS011;34136;51.022;7.082;2023-08-01T07:58:14;8.85;;;5.53;;
48327;SDS011;34136;51.022;7.082;2023-08-01T08:01:04;10.93;;;6.32;;
48327;SDS011;34136;51.022;7.082;2023-08-01T08:03:51;11.82;;;6.10;;
48327;SDS011;34136;51.022;7.082;2023-08-01T08:06:37;18.55;;;5.78;;
48327;SDS011;34136;51.022;7.082;2023-08-01T08:09:23;12.00;;;5.50;;
48327;SDS011;34136;51.022;7.082;2023-08-01T08:12:10;12.65;;;5.43;;
48327;SDS011;34136;51.022;7.082;2023-08-01T08:14:56;7.85;;;5.30;;
48327;SDS011;34136;51.022;7.082;2023-08-01T08:17:42;9.80;;;5.57;;
48327;SDS011;34136;51.022;7.082;2023-08-01T08:20:29;12.57;;;5.70;;
48327;SDS011;34136;51.022;7.082;2023-08-01T08:23:15;10.38;;;5.40;;
48327;SDS011;34136;51.022;7.082;2023-08-01T08:26:02;9.35;;;5.45;;
48327;SDS011;34136;51.022;7.082;2023-08-01T08:28:48;12.60;;;6.10;;
48327;SDS011;34136;51.022;7.082;2023-08-01T08:31:35;12.77;;;5.93;;
48327;SDS011;34136;51.022;7.082;2023-08-01T08:34:21;12.18;;;4.75;;
48327;SDS011;34136;51.022;7.082;2023-08-01T08:37:07;9.52;;;5.03;;
48327;SDS011;34136;51.022;7.082;2023-08-01T08:39:53;8.93;;;4.65;;
48327;SDS011;34136;51.022;7.082;2023-08-01T08:42:40;14.02;;;4.28;;
48327;SDS011;34136;51.022;7.082;2023-08-01T08:45:26;10.70;;;4.75;;
48327;SDS011;34136;51.022;7.082;2023-08-01T08:48:20;11.35;;;4.65;;
48327;SDS011;34136;51.022;7.082;2023-08-01T08:51:06;7.85;;;4.30;;
48327;SDS011;34136;51.022;7.082;2023-08-01T08:53:54;10.05;;;4.90;;
48327;SDS011;34136;51.022;7.082;2023-08-01T08:56:42;10.55;;;4.80;;
48327;SDS011;34136;51.022;7.082;2023-08-01T08:59:29;11.10;;;4.70;;
48327;SDS011;34136;51.022;7.082;2023-08-01T09:02:17;9.52;;;4.70;;
48327;SDS011;34136;51.022;7.082;2023-08-01T09:05:04;8.98;;;4.13;;
48327;SDS011;34136;51.022;7.082;2023-08-01T09:07:50;8.73;;;4.47;;
48327;SDS011;34136;51.022;7.082;2023-08-01T09:10:40;7.95;;;4.30;;
48327;SDS011;34136;51.022;7.082;2023-08-01T09:13:27;9.55;;;4.30;;
48327;SDS011;34136;51.022;7.082;2023-08-01T09:16:14;9.70;;;4.72;;
48327;SDS011;34136;51.022;7.082;2023-08-01T09:19:01;8.15;;;4.32;;
48327;SDS011;34136;51.022;7.082;2023-08-01T09:21:47;10.07;;;4.60;;
48327;SDS011;34136;51.022;7.082;2023-08-01T09:24:35;7.25;;;3.38;;
48327;SDS011;34136;51.022;7.082;2023-08-01T09:27:21;7.50;;;3.40;;
48327;SDS011;34136;51.022;7.082;2023-08-01T09:30:12;8.15;;;3.55;;
48327;SDS011;34136;51.022;7.082;2023-08-01T09:35:46;8.23;;;3.63;;
48327;SDS011;34136;51.022;7.082;2023-08-01T09:38:35;10.13;;;4.07;;
48327;SDS011;34136;51.022;7.082;2023-08-01T09:41:22;9.35;;;5.10;;
48327;SDS011;34136;51.022;7.082;2023-08-01T09:44:14;12.00;;;5.03;;
48327;SDS011;34136;51.022;7.082;2023-08-01T09:47:02;8.25;;;4.32;;
48327;SDS011;34136;51.022;7.082;2023-08-01T09:49:49;9.68;;;5.05;;
48327;SDS011;34136;51.022;7.082;2023-08-01T09:52:36;9.32;;;4.72;;
48327;SDS011;34136;51.022;7.082;2023-08-01T09:55:26;10.38;;;5.07;;
48327;SDS011;34136;51.022;7.082;2023-08-01T09:58:23;10.85;;;4.78;;
48327;SDS011;34136;51.022;7.082;2023-08-01T10:01:10;9.93;;;4.28;;
48327;SDS011;34136;51.022;7.082;2023-08-01T10:03:58;8.88;;;4.25;;
48327;SDS011;34136;51.022;7.082;2023-08-01T10:06:46;7.57;;;4.22;;
48327;SDS011;34136;51.022;7.082;2023-08-01T10:09:39;8.80;;;3.60;;
48327;SDS011;34136;51.022;7.082;2023-08-01T10:12:27;8.13;;;4.28;;
48327;SDS011;34136;51.022;7.082;2023-08-01T10:15:14;8.50;;;4.03;;
48327;SDS011;34136;51.022;7.082;2023-08-01T10:18:01;6.35;;;3.58;;
48327;SDS011;34136;51.022;7.082;2023-08-01T10:20:49;8.45;;;3.55;;
48327;SDS011;34136;51.022;7.082;2023-08-01T10:23:36;8.02;;;3.55;;
48327;SDS011;34136;51.022;7.082;2023-08-01T10:26:24;9.80;;;3.50;;
48327;SDS011;34136;51.022;7.082;2023-08-01T10:29:11;7.32;;;3.33;;
48327;SDS011;34136;51.022;7.082;2023-08-01T10:31:58;5.78;;;3.00;;
48327;SDS011;34136;51.022;7.082;2023-08-01T10:34:51;5.22;;;3.33;;
48327;SDS011;34136;51.022;7.082;2023-08-01T10:37:38;6.85;;;2.95;;
48327;SDS011;34136;51.022;7.082;2023-08-01T10:40:32;9.13;;;3.35;;
48327;SDS011;34136;51.022;7.082;2023-08-01T10:43:24;5.65;;;3.30;;
48327;SDS011;34136;51.022;7.082;2023-08-01T10:46:11;6.28;;;3.28;;
48327;SDS011;34136;51.022;7.082;2023-08-01T10:48:57;5.63;;;3.03;;
48327;SDS011;34136;51.022;7.082;2023-08-01T10:51:44;7.57;;;3.38;;
48327;SDS011;34136;51.022;7.082;2023-08-01T10:54:30;9.32;;;3.60;;
48327;SDS011;34136;51.022;7.082;2023-08-01T10:57:17;5.68;;;3.30;;
48327;SDS011;34136;51.022;7.082;2023-08-01T11:00:04;6.82;;;3.35;;
48327;SDS011;34136;51.022;7.082;2023-08-01T11:02:51;7.57;;;3.75;;
48327;SDS011;34136;51.022;7.082;2023-08-01T11:05:38;8.18;;;3.55;;
48327;SDS011;34136;51.022;7.082;2023-08-01T11:08:33;8.20;;;3.92;;
48327;SDS011;34136;51.022;7.082;2023-08-01T11:11:20;7.43;;;3.67;;
48327;SDS011;34136;51.022;7.082;2023-08-01T11:14:07;8.52;;;3.60;;
48327;SDS011;34136;51.022;7.082;2023-08-01T11:16:54;6.70;;;3.85;;
48327;SDS011;34136;51.022;7.082;2023-08-01T11:19:42;6.15;;;3.00;;
48327;SDS011;34136;51.022;7.082;2023-08-01T11:22:28;6.97;;;2.70;;
48327;SDS011;34136;51.022;7.082;2023-08-01T11:25:15;6.50;;;2.70;;
48327;SDS011;34136;51.022;7.082;2023-08-01T11:28:11;6.72;;;2.78;;
48327;SDS011;34136;51.022;7.082;2023-08-01T11:30:59;6.72;;;2.55;;
48327;SDS011;34136;51.022;7.082;2023-08-01T11:33:54;7.53;;;2.85;;
48327;SDS011;34136;51.022;7.082;2023-08-01T11:36:41;5.47;;;2.50;;
48327;SDS011;34136;51.022;7.082;2023-08-01T11:39:28;6.03;;;2.47;;
48327;SDS011;34136;51.022;7.082;2023-08-01T11:42:15;6.55;;;2.72;;
48327;SDS011;34136;51.022;7.082;2023-08-01T11:45:09;5.78;;;2.60;;
48327;SDS011;34136;51.022;7.082;2023-08-01T11:47:59;4.25;;;2.30;;
48327;SDS011;34136;51.022;7.082;2023-08-01T11:50:45;4.47;;;2.10;;
48327;SDS011;34136;51.022;7.082;2023-08-01T11:53:32;4.35;;;2.00;;
48327;SDS011;34136;51.022;7.082;2023-08-01T11:56:22;6.30;;;2.55;;
48327;SDS011;34136;51.022;7.082;2023-08-01T11:59:10;6.32;;;2.58;;
48327;SDS011;34136;51.022;7.082;2023-08-01T12:01:57;6.10;;;2.35;;
48327;SDS011;34136;51.022;7.082;2023-08-01T12:04:45;5.40;;;2.30;;
48327;SDS011;34136;51.022;7.082;2023-08-01T12:07:32;7.43;;;2.70;;
48327;SDS011;34136;51.022;7.082;2023-08-01T12:10:19;5.88;;;2.50;;
48327;SDS011;34136;51.022;7.082;2023-08-01T12:13:05;7.50;;;2.40;;
48327;SDS011;34136;51.022;7.082;2023-08-01T12:15:51;3.65;;;1.50;;
48327;SDS011;34136;51.022;7.082;2023-08-01T12:18:39;6.20;;;1.58;;
48327;SDS011;34136;51.022;7.082;2023-08-01T12:21:25;2.10;;;1.23;;
48327;SDS011;34136;51.022;7.082;2023-08-01T12:24:12;3.50;;;1.55;;
48327;SDS011;34136;51.022;7.082;2023-08-01T12:26:58;4.10;;;1.65;;
48327;SDS011;34136;51.022;7.082;2023-08-01T12:29:44;3.92;;;1.70;;
48327;SDS011;34136;51.022;7.082;2023-08-01T12:32:31;3.88;;;1.60;;
48327;SDS011;34136;51.022;7.082;2023-08-01T12:35:17;3.70;;;1.60;;
48327;SDS011;34136;51.022;7.082;2023-08-01T12:38:04;3.42;;;1.73;;
48327;SDS011;34136;51.022;7.082;2023-08-01T12:40:50;3.95;;;1.90;;
48327;SDS011;34136;51.022;7.082;2023-08-01T12:43:36;5.85;;;2.38;;
48327;SDS011;34136;51.022;7.082;2023-08-01T12:46:23;5.82;;;2.30;;
48327;SDS011;34136;51.022;7.082;2023-08-01T12:49:09;5.68;;;2.65;;
48327;SDS011;34136;51.022;7.082;2023-08-01T12:51:55;8.18;;;3.25;;
48327;SDS011;34136;51.022;7.082;2023-08-01T12:54:42;13.15;;;4.57;;
48327;SDS011;34136;51.022;7.082;2023-08-01T12:57:28;9.25;;;4.10;;
48327;SDS011;34136;51.022;7.082;2023-08-01T13:00:15;5.07;;;3.03;;
48327;SDS011;34136;51.022;7.082;2023-08-01T13:03:01;6.55;;;3.30;;
48327;SDS011;34136;51.022;7.082;2023-08-01T13:05:48;5.22;;;3.08;;
48327;SDS011;34136;51.022;7.082;2023-08-01T13:08:34;7.57;;;3.35;;
48327;SDS011;34136;51.022;7.082;2023-08-01T13:11:21;8.07;;;3.38;;
48327;SDS011;34136;51.022;7.082;2023-08-01T13:14:07;7.40;;;2.92;;
48327;SDS011;34136;51.022;7.082;2023-08-01T13:16:54;6.00;;;2.88;;
48327;SDS011;34136;51.022;7.082;2023-08-01T13:19:40;8.10;;;3.72;;
48327;SDS011;34136;51.022;7.082;2023-08-01T13:22:27;5.57;;;3.55;;
48327;SDS011;34136;51.022;7.082;2023-08-01T13:25:13;10.80;;;3.90;;
48327;SDS011;34136;51.022;7.082;2023-08-01T13:28:00;8.07;;;3.67;;
48327;SDS011;34136;51.022;7.082;2023-08-01T13:30:46;7.60;;;3.35;;
48327;SDS011;34136;51.022;7.082;2023-08-01T13:33:32;5.22;;;3.35;;
48327;SDS011;34136;51.022;7.082;2023-08-01T13:36:18;5.53;;;3.10;;
48327;SDS011;34136;51.022;7.082;2023-08-01T13:39:05;8.35;;;3.28;;
48327;SDS011;34136;51.022;7.082;2023-08-01T13:41:51;7.40;;;2.92;;
48327;SDS011;34136;51.022;7.082;2023-08-01T13:44:37;5.90;;;3.10;;
48327;SDS011;34136;51.022;7.082;2023-08-01T13:47:23;7.10;;;2.90;;
48327;SDS011;34136;51.022;7.082;2023-08-01T13:50:09;7.18;;;3.05;;
48327;SDS011;34136;51.022;7.082;2023-08-01T13:52:56;6.40;;;3.35;;
48327;SDS011;34136;51.022;7.082;2023-08-01T13:55:42;5.20;;;2.75;;
48327;SDS011;34136;51.022;7.082;2023-08-01T13:58:28;8.02;;;2.85;;
48327;SDS011;34136;51.022;7.082;2023-08-01T14:01:15;5.90;;;2.90;;
48327;SDS011;34136;51.022;7.082;2023-08-01T14:04:01;6.55;;;2.97;;
48327;SDS011;34136;51.022;7.082;2023-08-01T14:06:48;6.60;;;3.08;;
48327;SDS011;34136;51.022;7.082;2023-08-01T14:09:34;7.93;;;3.00;;
48327;SDS011;34136;51.022;7.082;2023-08-01T14:12:21;8.05;;;3.15;;
48327;SDS011;34136;51.022;7.082;2023-08-01T14:15:07;7.18;;;3.42;;
48327;SDS011;34136;51.022;7.082;2023-08-01T14:17:55;7.40;;;3.00;;
48327;SDS011;34136;51.022;7.082;2023-08-01T14:20:41;5.20;;;3.40;;
48327;SDS011;34136;51.022;7.082;2023-08-01T14:23:27;5.72;;;3.00;;
48327;SDS011;34136;51.022;7.082;2023-08-01T14:26:14;5.70;;;2.70;;
48327;SDS011;34136;51.022;7.082;2023-08-01T14:29:00;5.55;;;3.05;;
48327;SDS011;34136;51.022;7.082;2023-08-01T14:31:46;5.75;;;3.00;;
48327;SDS011;34136;51.022;7.082;2023-08-01T14:34:33;5.95;;;3.13;;
48327;SDS011;34136;51.022;7.082;2023-08-01T14:37:20;6.32;;;3.15;;
48327;SDS011;34136;51.022;7.082;2023-08-01T14:40:06;7.93;;;3.50;;
48327;SDS011;34136;51.022;7.082;2023-08-01T14:42:53;6.78;;;3.53;;
48327;SDS011;34136;51.022;7.082;2023-08-01T14:45:39;6.07;;;3.92;;
48327;SDS011;34136;51.022;7.082;2023-08-01T14:48:26;7.03;;;4.03;;
48327;SDS011;34136;51.022;7.082;2023-08-01T14:51:13;7.65;;;4.43;;
48327;SDS011;34136;51.022;7.082;2023-08-01T14:53:59;7.93;;;4.30;;
48327;SDS011;34136;51.022;7.082;2023-08-01T14:56:46;9.50;;;5.28;;
48327;SDS011;34136;51.022;7.082;2023-08-01T14:59:32;9.35;;;4.57;;
48327;SDS011;34136;51.022;7.082;2023-08-01T15:02:18;8.63;;;4.80;;
48327;SDS011;34136;51.022;7.082;2023-08-01T15:05:05;10.48;;;4.32;;
48327;SDS011;34136;51.022;7.082;2023-08-01T15:07:52;6.75;;;3.88;;
48327;SDS011;34136;51.022;7.082;2023-08-01T15:10:38;7.85;;;3.47;;
48327;SDS011;34136;51.022;7.082;2023-08-01T15:13:24;8.82;;;3.63;;
48327;SDS011;34136;51.022;7.082;2023-08-01T15:16:11;9.13;;;3.47;;
48327;SDS011;34136;51.022;7.082;2023-08-01T15:18:57;7.60;;;3.10;;
48327;SDS011;34136;51.022;7.082;2023-08-01T15:21:44;7.25;;;3.15;;
48327;SDS011;34136;51.022;7.082;2023-08-01T15:24:31;8.95;;;3.38;;
48327;SDS011;34136;51.022;7.082;2023-08-01T15:27:17;8.73;;;3.00;;
48327;SDS011;34136;51.022;7.082;2023-08-01T15:30:04;8.88;;;3.17;;
48327;SDS011;34136;51.022;7.082;2023-08-01T15:32:51;8.98;;;3.10;;
48327;SDS011;34136;51.022;7.082;2023-08-01T15:35:37;6.20;;;2.80;;
48327;SDS011;34136;51.022;7.082;2023-08-01T15:38:24;6.78;;;2.70;;
48327;SDS011;34136;51.022;7.082;2023-08-01T15:41:10;4.50;;;2.25;;
48327;SDS011;34136;51.022;7.082;2023-08-01T15:43:57;5.68;;;2.15;;
48327;SDS011;34136;51.022;7.082;2023-08-01T15:46:43;7.55;;;2.72;;
48327;SDS011;34136;51.022;7.082;2023-08-01T15:49:29;6.15;;;2.30;;
48327;SDS011;34136;51.022;7.082;2023-08-01T15:52:16;9.40;;;2.78;;
48327;SDS011;34136;51.022;7.082;2023-08-01T15:55:02;6.75;;;3.10;;
48327;SDS011;34136;51.022;7.082;2023-08-01T15:57:49;7.35;;;2.65;;
48327;SDS011;34136;51.022;7.082;2023-08-01T16:00:35;6.57;;;2.25;;
48327;SDS011;34136;51.022;7.082;2023-08-01T16:03:21;6.20;;;2.10;;
48327;SDS011;34136;51.022;7.082;2023-08-01T16:06:08;5.25;;;2.72;;
48327;SDS011;34136;51.022;7.082;2023-08-01T16:08:56;8.80;;;2.13;;
48327;SDS011;34136;51.022;7.082;2023-08-01T16:11:42;7.05;;;2.40;;
48327;SDS011;34136;51.022;7.082;2023-08-01T16:14:28;4.47;;;2.63;;
48327;SDS011;34136;51.022;7.082;2023-08-01T16:17:14;5.57;;;2.20;;
48327;SDS011;34136;51.022;7.082;2023-08-01T16:20:01;6.03;;;2.40;;
48327;SDS011;34136;51.022;7.082;2023-08-01T16:22:47;6.22;;;2.28;;
48327;SDS011;34136;51.022;7.082;2023-08-01T16:25:34;6.65;;;2.38;;
48327;SDS011;34136;51.022;7.082;2023-08-01T16:28:21;8.98;;;2.35;;
48327;SDS011;34136;51.022;7.082;2023-08-01T16:31:07;6.75;;;2.30;;
48327;SDS011;34136;51.022;7.082;2023-08-01T16:33:53;9.50;;;2.88;;
48327;SDS011;34136;51.022;7.082;2023-08-01T16:36:39;7.20;;;2.13;;
48327;SDS011;34136;51.022;7.082;2023-08-01T16:39:25;4.65;;;2.00;;
48327;SDS011;34136;51.022;7.082;2023-08-01T16:42:11;5.90;;;2.13;;